• Join FlightAware (Why Join?)
  • Login
  • US Flag 
04:13PM EDT


 

Airport Tracker/Info


-or-


 

Live Flight TrackerFlight Track Log ✈ AAL1774 ✈ 03-May-2013 ✈ TIST / STT - KMIA

Flight Track Log - Related Links

Times and Time Zones

All times are in EDT time to prevent confusion due to time zone crossing. See the AAL1774 flight status page for this flight to view local times or setup timezone preferences in your user account.

Time Position Orientation Groundspeed Altitude Reporting Facility
EDT Latitude Longitude Course Direction KTS MPH feet Rate Location/Type
09:02AM 18.3333 -65.0000 281° West 170 196 1,400  Level San Juan Center
09:03AM 18.3333 -65.0500 270° West 220 253 3,300 2,160 Climbing San Juan Center
09:04AM 18.3167 -65.1333 258° West 270 311 5,800 2,580 Climbing San Juan Center
09:05AM 18.2945 -65.3002 283° West  Level FlightAware Approximate
09:05AM 18.3167 -65.2167 270° West 280 322 8,600  Level San Juan Center
09:06AM 18.3188 -65.4107 282° West  Level FlightAware Approximate
09:06AM 18.3167 -65.3000 270° West 300 345 10,700  Level San Juan Center
09:07AM 18.3410 -65.5218 282° West  Level FlightAware Approximate
09:07AM 18.3167 -65.4000 270° West 330 380 12,200  Level San Juan Center
09:08AM 18.3692 -65.6310 281° West  Level FlightAware Approximate
09:08AM 18.3333 -65.4833 282° West 330 380 14,200  Level San Juan Center
09:09AM 18.4000 -65.5667 310° West 350 403 16,300 1,920 Climbing San Juan Center
09:10AM 18.4667 -65.6500 310° West 360 414 18,100 1,800 Climbing San Juan Center
09:11AM 18.5333 -65.7500 305° West 370 426 20,000 1,680 Climbing San Juan Center
09:12AM 18.6000 -65.8333 310° West 380 437 21,600 1,500 Climbing San Juan Center
09:13AM 18.6667 -65.9167 310° West 380 437 23,100 1,440 Climbing San Juan Center
09:14AM 18.7333 -66.0167 305° West 380 437 24,600 1,380 Climbing San Juan Center
09:15AM 18.8000 -66.1000 310° West 400 460 26,000 1,380 Climbing San Juan Center
09:16AM 18.8667 -66.2000 305° West 410 472 27,400 1,440 Climbing San Juan Center
09:17AM 18.9333 -66.3000 305° West 420 483 28,900 1,380 Climbing San Juan Center
09:18AM 19.0000 -66.4000 305° West 420 483 30,300 1,680 Climbing San Juan Center
09:19AM 19.0833 -66.4833 317° Northwest 410 472 32,400 1,800 Climbing San Juan Center
09:20AM 19.1500 -66.5833 305° West 400 460 34,000 780 Climbing San Juan Center
09:21AM 19.2000 -66.6667 302° West 370 426 34,000  Level San Juan Center
09:22AM 19.2667 -66.7500 310° West 400 460 34,000  Level San Juan Center
09:23AM 19.3333 -66.8500 305° West 400 460 34,000  Level San Juan Center
09:24AM 19.4000 -66.9500 305° West 410 472 34,000  Level San Juan Center
09:25AM 19.4833 -67.0667 307° West 410 472 34,000  Level San Juan Center
09:26AM 19.5500 -67.1667 305° West 420 483 34,000  Level San Juan Center
09:27AM 19.6167 -67.2500 310° West 410 472 34,000  Level San Juan Center
09:28AM 19.6833 -67.3500 305° West 410 472 34,000  Level San Juan Center
09:29AM 19.7667 -67.4500 312° West 410 472 34,000  Level San Juan Center
09:30AM 19.8333 -67.5500 305° West 410 472 34,000  Level San Juan Center
09:31AM 19.9000 -67.6500 305° West 410 472 34,000  Level San Juan Center
09:32AM 19.9667 -67.7333 310° West 410 472 34,000  Level San Juan Center
09:33AM 20.0333 -67.8333 305° West 400 460 34,000  Level San Juan Center
09:34AM 20.1000 -67.9333 305° West 400 460 34,000  Level San Juan Center
09:35AM 20.1486 -68.0194 301° West 398 458 34,000  Level Miami Center
09:36AM 20.2222 -68.1097 311° West 520 598 34,000  Level Miami Center
09:37AM 20.2858 -68.2047 306° West 448 516 34,000  Level Miami Center
09:38AM 20.3494 -68.3022 305° West 414 476 34,000  Level Miami Center
09:39AM 20.4031 -68.4072 299° West 403 464 34,000  Level Miami Center
09:40AM 20.4525 -68.5100 297° West 393 452 34,000  Level Miami Center
09:41AM 20.5078 -68.6128 300° West 393 452 34,000  Level Miami Center
09:42AM 20.5592 -68.7181 298° West 398 458 34,000  Level Miami Center
09:43AM 20.6106 -68.8233 298° West 398 458 34,000  Level Miami Center
09:44AM 20.6614 -68.9242 298° West 398 458 34,000  Level Miami Center
09:45AM 20.7011 -69.0083 297° West 398 458 34,000  Level Miami Center
09:46AM 20.7589 -69.1222 298° West 398 458 34,000  Level Miami Center
09:47AM 20.8081 -69.2281 296° West 398 458 34,000  Level Miami Center
09:48AM 20.8569 -69.3339 296° West 398 458 34,000  Level Miami Center
09:49AM 20.9097 -69.4372 299° West 398 458 34,000  Level Miami Center
09:50AM 20.9606 -69.5411 298° West 398 458 34,000  Level Miami Center
09:51AM 21.0092 -69.6450 297° West 398 458 34,000  Level Miami Center
09:52AM 21.0600 -69.7508 297° West 398 458 34,000  Level Miami Center
09:53AM 21.1125 -69.8525 299° West 398 458 34,000  Level Miami Center
09:54AM 21.1611 -69.9567 297° West 398 458 34,000  Level Miami Center
09:55AM 21.2114 -70.0608 297° West 398 458 34,000  Level Miami Center
09:56AM 21.2600 -70.1650 297° West 398 458 34,000  Level Miami Center
09:57AM 21.3125 -70.2714 298° West 398 458 34,000  Level Miami Center
09:58AM 21.3628 -70.3781 297° West 398 458 34,000  Level Miami Center
09:59AM 21.4131 -70.4847 297° West 398 458 34,000  Level Miami Center
10:00AM 21.4633 -70.5914 297° West 398 458 34,000  Level Miami Center
10:01AM 21.5156 -70.6958 298° West 398 458 34,000  Level Miami Center
10:02AM 21.5658 -70.8028 297° West 398 458 34,000  Level Miami Center
10:03AM 21.6225 -70.9208 297° West 398 458 34,000  Level Miami Center
10:04AM 21.6725 -71.0256 297° West 398 458 34,000  Level Miami Center
10:05AM 21.7222 -71.1283 298° West 398 458 34,000  Level Miami Center
10:06AM 21.7700 -71.2336 296° West 398 458 34,000  Level Miami Center
10:07AM 21.8153 -71.3344 296° West 398 458 34,000  Level Miami Center
10:08AM 21.8631 -71.4397 296° West 393 452 34,000  Level Miami Center
10:09AM 21.9103 -71.5383 297° West 393 452 34,000  Level Miami Center
10:10AM 21.9575 -71.6417 296° West 393 452 34,000  Level Miami Center
10:11AM 22.0050 -71.7472 296° West 388 447 34,000 60 Level Miami Center
10:12AM 22.0544 -71.8506 297° West 388 447 34,200 1,140 Climbing Miami Center
10:13AM 22.0994 -71.9494 296° West 383 441 36,300 1,560 Climbing Miami Center
10:14AM 22.1442 -72.0464 296° West 378 435 37,400 840 Climbing Miami Center
10:15AM 22.1889 -72.1456 296° West 373 429 38,000 300 Climbing Miami Center
10:16AM 22.2358 -72.2469 297° West 373 429 38,000  Level Miami Center
10:17AM 22.2786 -72.3464 295° West 373 429 38,000  Level Miami Center
10:18AM 22.3253 -72.4436 297° West 373 429 38,000  Level Miami Center
10:19AM 22.3678 -72.5431 295° West 373 429 38,000  Level Miami Center
10:20AM 22.4144 -72.6447 296° West 373 429 38,000  Level Miami Center
10:21AM 22.4592 -72.7444 296° West 373 429 38,000  Level Miami Center
10:22AM 22.5056 -72.8419 297° West 373 429 38,000  Level Miami Center
10:23AM 22.5519 -72.9417 297° West 368 423 38,000  Level Miami Center
10:24AM 22.5961 -73.0392 296° West 368 423 38,000  Level Miami Center
10:25AM 22.6364 -73.1394 294° West 368 423 38,000  Level Miami Center
10:26AM 22.6739 -73.2306 294° West 368 423 38,000  Level Miami Center
10:27AM 22.7222 -73.3214 300° West 363 418 38,000  Level Miami Center
10:28AM 22.7642 -73.4217 294° West 357 411 38,000  Level Miami Center
10:29AM 22.8206 -73.5147 303° West 357 411 38,000  Level Miami Center
10:30AM 22.9014 -73.5892 320° Northwest 374 430 38,000  Level Miami Center
10:31AM 22.9825 -73.6683 318° Northwest 379 436 38,000  Level Miami Center
10:32AM 23.0594 -73.7500 316° Northwest 384 442 38,000  Level Miami Center
10:33AM 23.1136 -73.8436 302° West 378 435 38,000  Level Miami Center
10:34AM 23.1575 -73.9442 295° West 364 419 38,000  Level Miami Center
10:35AM 23.1969 -74.0450 293° West 369 425 38,000  Level Miami Center
10:36AM 23.2406 -74.1458 295° West 369 425 38,000  Level Miami Center
10:37AM 23.2800 -74.2444 294° West 364 419 38,000  Level Miami Center
10:38AM 23.3256 -74.3453 296° West 364 419 38,000  Level Miami Center
10:39AM 23.3647 -74.4464 293° West 364 419 38,000  Level Miami Center
10:40AM 23.4039 -74.5453 293° West 364 419 38,000  Level Miami Center
10:41AM 23.4453 -74.6464 294° West 369 425 38,000  Level Miami Center
10:42AM 23.4864 -74.7475 294° West 369 425 38,000  Level Miami Center
10:43AM 23.5275 -74.8467 294° West 369 425 38,000  Level Miami Center
10:44AM 23.5683 -74.9481 294° West 369 425 38,000  Level Miami Center
10:45AM 23.6094 -75.0469 294° West 369 425 38,000  Level Miami Center
10:46AM 23.6481 -75.1486 293° West 369 425 38,000  Level Miami Center
10:47AM 23.6889 -75.2500 294° West 369 425 38,000  Level Miami Center
10:48AM 23.7297 -75.3472 295° West 369 425 38,000  Level Miami Center
10:49AM 23.7706 -75.4489 294° West 364 419 38,000  Level Miami Center
10:50AM 23.8111 -75.5528 293° West 364 419 38,000  Level Miami Center
10:51AM 23.8517 -75.6525 294° West 364 419 38,000  Level Miami Center
10:52AM 23.8900 -75.7567 292° West 369 425 38,000  Level Miami Center
10:53AM 23.9306 -75.8586 294° West 369 425 38,000  Level Miami Center
10:54AM 23.9708 -75.9628 293° West 374 430 38,000  Level Miami Center
10:55AM 24.0133 -76.0650 294° West 374 430 38,000  Level Miami Center
10:56AM 24.0514 -76.1669 292° West 374 430 38,000  Level Miami Center
10:57AM 24.0936 -76.2739 293° West 374 430 38,000  Level Miami Center
10:58AM 24.1317 -76.3761 292° West 374 430 38,000  Level Miami Center
10:59AM 24.1736 -76.4808 294° West 374 430 38,000  Level Miami Center
11:00AM 24.2117 -76.5808 293° West 374 430 38,000  Level Miami Center
11:01AM 24.2514 -76.6833 293° West 368 423 38,000  Level Miami Center
11:02AM 24.2914 -76.7814 294° West 368 423 38,000  Level Miami Center
11:03AM 24.3289 -76.8817 292° West 363 418 38,000  Level Miami Center
11:04AM 24.3686 -76.9819 294° West 363 418 38,000  Level Miami Center
11:05AM 24.4061 -77.0825 292° West 358 412 38,000  Level Miami Center
11:06AM 24.4436 -77.1831 292° West 358 412 38,000  Level Miami Center
11:07AM 24.4831 -77.2836 293° West 358 412 38,000  Level Miami Center
11:08AM 24.5203 -77.3819 293° West 358 412 38,000  Level Miami Center
11:09AM 24.5617 -77.4917 293° West 358 412 38,000  Level Miami Center
11:10AM 24.5989 -77.5925 292° West 358 412 38,000  Level Miami Center
11:11AM 24.6358 -77.6933 292° West 358 412 38,000  Level Miami Center
11:12AM 24.6750 -77.7919 294° West 358 412 38,000  Level Miami Center
11:13AM 24.7119 -77.8906 292° West 358 412 38,000 -300 Level Miami Center
11:14AM 24.7489 -77.9917 292° West 358 412 37,400 -840 Descending Miami Center
11:15AM 24.7878 -78.0925 293° West 358 412 36,400 -1,080 Descending Miami Center
11:16AM 24.8267 -78.1914 293° West 358 412 35,300 -1,200 Descending Miami Center
11:17AM 24.8633 -78.2972 291° West 358 412 34,100 -1,380 Descending Miami Center
11:18AM 24.9061 -78.4056 294° West 364 419 32,600 -1,500 Descending Miami Center
11:19AM 24.9486 -78.5228 292° West 389 448 31,200 -1,500 Descending Miami Center
11:20AM 24.9933 -78.6403 293° West 408 470 29,600 -1,920 Descending Miami Center
11:21AM 25.0358 -78.7581 292° West 415 478 27,400 -2,400 Descending Miami Center
11:22AM 25.0842 -78.8803 294° West 420 483 24,800 -2,700 Descending Miami Center
11:23AM 25.1244 -78.9981 291° West 420 483 22,100 -2,820 Descending Miami Center
11:24AM 25.1708 -79.1136 294° West 415 478 19,200 -2,700 Descending Miami Center
11:25AM 25.2128 -79.2292 292° West 415 478 16,700 -2,700 Descending Miami Center
11:26AM 25.2528 -79.3403 292° West 404 465 13,800 -2,880 Descending Miami Center
11:27AM 25.2928 -79.4492 292° West 393 452 11,000 -2,520 Descending Miami Center
11:28AM 25.3086 -79.5000 289° West 379 436 10,200 -1,020 Descending Miami Center
11:28AM 25.3283 -79.5533 292° West 383 441 10,000 -180 Descending Miami Center
11:29AM 25.3542 -79.6297 291° West 284 327 10,000 -60 Level Miami Center
11:30AM 25.3881 -79.7133 294° West 299 344 9,900 -720 Descending Miami Center
11:31AM 25.4328 -79.7833 305° West 280 322 8,600 -1,380 Descending Miami Center
11:32AM 25.4775 -79.8419 310° West 277 319 7,300 -1,380 Descending Miami Center
11:33AM 25.5303 -79.9122 310° West 273 314 5,900 -1,380 Descending Miami Center
11:34AM 25.5814 -79.9736 313° West 262 302 4,500 -1,380 Descending Miami Center
11:35AM 25.6322 -80.0303 315° West 265 305 3,100 -1,380 Descending Miami Center